sensor_id;sensor_type;location;lat;lon;timestamp;P1;durP1;ratioP1;P2;durP2;ratioP2
55222;SDS011;41090;48.632;12.428;2023-12-29T00:01:39;16.03;;;14.27;;
55222;SDS011;41090;48.632;12.428;2023-12-29T00:04:04;17.13;;;14.67;;
55222;SDS011;41090;48.632;12.428;2023-12-29T00:06:30;17.10;;;14.23;;
55222;SDS011;41090;48.632;12.428;2023-12-29T00:08:55;16.83;;;14.17;;
55222;SDS011;41090;48.632;12.428;2023-12-29T00:11:20;18.77;;;15.17;;
55222;SDS011;41090;48.632;12.428;2023-12-29T00:13:46;16.33;;;14.30;;
55222;SDS011;41090;48.632;12.428;2023-12-29T00:16:11;19.33;;;15.13;;
55222;SDS011;41090;48.632;12.428;2023-12-29T00:18:37;20.10;;;14.27;;
55222;SDS011;41090;48.632;12.428;2023-12-29T00:21:02;18.77;;;14.87;;
55222;SDS011;41090;48.632;12.428;2023-12-29T00:23:27;18.30;;;14.77;;
55222;SDS011;41090;48.632;12.428;2023-12-29T00:25:52;16.93;;;13.63;;
55222;SDS011;41090;48.632;12.428;2023-12-29T00:28:17;17.23;;;14.43;;
55222;SDS011;41090;48.632;12.428;2023-12-29T00:30:43;16.50;;;14.47;;
55222;SDS011;41090;48.632;12.428;2023-12-29T00:33:08;15.60;;;13.47;;
55222;SDS011;41090;48.632;12.428;2023-12-29T00:35:36;17.37;;;14.90;;
55222;SDS011;41090;48.632;12.428;2023-12-29T00:38:01;17.93;;;15.00;;
55222;SDS011;41090;48.632;12.428;2023-12-29T00:40:27;15.57;;;13.87;;
55222;SDS011;41090;48.632;12.428;2023-12-29T00:42:52;16.27;;;13.90;;
55222;SDS011;41090;48.632;12.428;2023-12-29T00:45:17;15.37;;;13.77;;
55222;SDS011;41090;48.632;12.428;2023-12-29T00:47:42;19.13;;;14.03;;
55222;SDS011;41090;48.632;12.428;2023-12-29T00:50:07;16.77;;;14.17;;
55222;SDS011;41090;48.632;12.428;2023-12-29T00:52:33;18.70;;;15.40;;
55222;SDS011;41090;48.632;12.428;2023-12-29T00:54:58;15.87;;;13.90;;
55222;SDS011;41090;48.632;12.428;2023-12-29T00:57:24;17.93;;;14.57;;
55222;SDS011;41090;48.632;12.428;2023-12-29T00:59:49;14.43;;;12.93;;
55222;SDS011;41090;48.632;12.428;2023-12-29T01:02:14;14.97;;;13.30;;
55222;SDS011;41090;48.632;12.428;2023-12-29T01:04:39;15.97;;;13.13;;
55222;SDS011;41090;48.632;12.428;2023-12-29T01:07:05;13.63;;;12.03;;
55222;SDS011;41090;48.632;12.428;2023-12-29T01:09:30;13.83;;;11.97;;
55222;SDS011;41090;48.632;12.428;2023-12-29T01:11:55;12.50;;;11.17;;
55222;SDS011;41090;48.632;12.428;2023-12-29T01:14:21;13.73;;;10.73;;
55222;SDS011;41090;48.632;12.428;2023-12-29T01:16:46;12.93;;;11.53;;
55222;SDS011;41090;48.632;12.428;2023-12-29T01:19:11;13.20;;;11.07;;
55222;SDS011;41090;48.632;12.428;2023-12-29T01:21:39;13.30;;;11.63;;
55222;SDS011;41090;48.632;12.428;2023-12-29T01:24:05;12.10;;;10.80;;
55222;SDS011;41090;48.632;12.428;2023-12-29T01:26:32;11.37;;;10.17;;
55222;SDS011;41090;48.632;12.428;2023-12-29T01:29:01;13.50;;;11.03;;
55222;SDS011;41090;48.632;12.428;2023-12-29T01:31:28;12.03;;;10.73;;
55222;SDS011;41090;48.632;12.428;2023-12-29T01:33:54;11.57;;;10.03;;
55222;SDS011;41090;48.632;12.428;2023-12-29T01:36:19;11.57;;;9.37;;
55222;SDS011;41090;48.632;12.428;2023-12-29T01:38:44;10.80;;;9.63;;
55222;SDS011;41090;48.632;12.428;2023-12-29T01:41:10;10.40;;;8.87;;
55222;SDS011;41090;48.632;12.428;2023-12-29T01:43:35;11.07;;;9.80;;
55222;SDS011;41090;48.632;12.428;2023-12-29T01:46:00;10.37;;;9.03;;
55222;SDS011;41090;48.632;12.428;2023-12-29T01:48:25;9.60;;;8.60;;
55222;SDS011;41090;48.632;12.428;2023-12-29T01:50:51;9.07;;;8.10;;
55222;SDS011;41090;48.632;12.428;2023-12-29T01:53:17;8.87;;;7.83;;
55222;SDS011;41090;48.632;12.428;2023-12-29T01:55:42;11.23;;;8.10;;
55222;SDS011;41090;48.632;12.428;2023-12-29T01:58:08;10.13;;;9.00;;
55222;SDS011;41090;48.632;12.428;2023-12-29T02:00:33;8.90;;;7.87;;
55222;SDS011;41090;48.632;12.428;2023-12-29T02:02:58;9.83;;;8.83;;
55222;SDS011;41090;48.632;12.428;2023-12-29T02:05:24;9.50;;;8.20;;
55222;SDS011;41090;48.632;12.428;2023-12-29T02:07:50;9.57;;;8.30;;
55222;SDS011;41090;48.632;12.428;2023-12-29T02:10:16;10.27;;;9.07;;
55222;SDS011;41090;48.632;12.428;2023-12-29T02:12:42;9.83;;;8.83;;
55222;SDS011;41090;48.632;12.428;2023-12-29T02:15:08;9.87;;;8.43;;
55222;SDS011;41090;48.632;12.428;2023-12-29T02:17:44;9.60;;;8.60;;
55222;SDS011;41090;48.632;12.428;2023-12-29T02:20:11;9.67;;;8.07;;
55222;SDS011;41090;48.632;12.428;2023-12-29T02:22:36;8.80;;;7.90;;
55222;SDS011;41090;48.632;12.428;2023-12-29T02:25:01;9.93;;;8.03;;
55222;SDS011;41090;48.632;12.428;2023-12-29T02:27:33;10.70;;;8.03;;
55222;SDS011;41090;48.632;12.428;2023-12-29T02:30:06;8.90;;;7.80;;
55222;SDS011;41090;48.632;12.428;2023-12-29T02:32:33;10.43;;;8.03;;
55222;SDS011;41090;48.632;12.428;2023-12-29T02:34:59;7.83;;;7.03;;
55222;SDS011;41090;48.632;12.428;2023-12-29T02:37:25;8.87;;;7.97;;
55222;SDS011;41090;48.632;12.428;2023-12-29T02:39:50;8.10;;;7.27;;
55222;SDS011;41090;48.632;12.428;2023-12-29T02:42:16;8.07;;;7.27;;
55222;SDS011;41090;48.632;12.428;2023-12-29T02:44:41;8.97;;;7.47;;
55222;SDS011;41090;48.632;12.428;2023-12-29T02:47:06;8.93;;;7.53;;
55222;SDS011;41090;48.632;12.428;2023-12-29T02:49:32;9.00;;;7.83;;
55222;SDS011;41090;48.632;12.428;2023-12-29T02:51:57;9.33;;;8.33;;
55222;SDS011;41090;48.632;12.428;2023-12-29T02:54:22;9.00;;;8.10;;
55222;SDS011;41090;48.632;12.428;2023-12-29T02:56:47;10.40;;;7.90;;
55222;SDS011;41090;48.632;12.428;2023-12-29T02:59:13;9.63;;;7.67;;
55222;SDS011;41090;48.632;12.428;2023-12-29T03:01:38;8.43;;;7.63;;
55222;SDS011;41090;48.632;12.428;2023-12-29T03:04:03;10.67;;;8.37;;
55222;SDS011;41090;48.632;12.428;2023-12-29T03:06:28;8.33;;;7.53;;
55222;SDS011;41090;48.632;12.428;2023-12-29T03:08:54;9.63;;;7.50;;
55222;SDS011;41090;48.632;12.428;2023-12-29T03:11:19;9.03;;;7.43;;
55222;SDS011;41090;48.632;12.428;2023-12-29T03:13:44;8.90;;;7.97;;
55222;SDS011;41090;48.632;12.428;2023-12-29T03:16:09;8.47;;;7.37;;
55222;SDS011;41090;48.632;12.428;2023-12-29T03:18:35;8.67;;;7.80;;
55222;SDS011;41090;48.632;12.428;2023-12-29T03:21:03;8.70;;;7.60;;
55222;SDS011;41090;48.632;12.428;2023-12-29T03:23:28;8.80;;;7.27;;
55222;SDS011;41090;48.632;12.428;2023-12-29T03:25:54;7.70;;;7.00;;
55222;SDS011;41090;48.632;12.428;2023-12-29T03:28:19;9.23;;;7.20;;
55222;SDS011;41090;48.632;12.428;2023-12-29T03:30:44;8.63;;;6.73;;
55222;SDS011;41090;48.632;12.428;2023-12-29T03:33:09;7.30;;;6.60;;
55222;SDS011;41090;48.632;12.428;2023-12-29T03:35:35;7.80;;;6.80;;
55222;SDS011;41090;48.632;12.428;2023-12-29T03:38:00;7.80;;;6.93;;
55222;SDS011;41090;48.632;12.428;2023-12-29T03:40:25;6.90;;;5.60;;
55222;SDS011;41090;48.632;12.428;2023-12-29T03:42:50;6.90;;;5.90;;
55222;SDS011;41090;48.632;12.428;2023-12-29T03:45:15;5.07;;;4.60;;
55222;SDS011;41090;48.632;12.428;2023-12-29T03:47:41;4.90;;;4.40;;
55222;SDS011;41090;48.632;12.428;2023-12-29T03:50:06;6.33;;;4.87;;
55222;SDS011;41090;48.632;12.428;2023-12-29T03:52:31;5.63;;;5.10;;
55222;SDS011;41090;48.632;12.428;2023-12-29T03:54:56;6.10;;;5.27;;
55222;SDS011;41090;48.632;12.428;2023-12-29T03:57:22;5.70;;;5.07;;
55222;SDS011;41090;48.632;12.428;2023-12-29T03:59:47;5.20;;;4.70;;
55222;SDS011;41090;48.632;12.428;2023-12-29T04:02:12;6.10;;;3.90;;
55222;SDS011;41090;48.632;12.428;2023-12-29T04:04:37;4.50;;;3.80;;
55222;SDS011;41090;48.632;12.428;2023-12-29T04:07:03;4.20;;;3.80;;
55222;SDS011;41090;48.632;12.428;2023-12-29T04:09:28;4.37;;;3.67;;
55222;SDS011;41090;48.632;12.428;2023-12-29T04:11:53;4.13;;;3.73;;
55222;SDS011;41090;48.632;12.428;2023-12-29T04:14:18;3.93;;;3.47;;
55222;SDS011;41090;48.632;12.428;2023-12-29T04:16:44;4.03;;;3.60;;
55222;SDS011;41090;48.632;12.428;2023-12-29T04:19:09;4.00;;;3.30;;
55222;SDS011;41090;48.632;12.428;2023-12-29T04:21:34;4.30;;;3.90;;
55222;SDS011;41090;48.632;12.428;2023-12-29T04:23:59;4.10;;;3.70;;
55222;SDS011;41090;48.632;12.428;2023-12-29T04:26:25;4.93;;;4.43;;
55222;SDS011;41090;48.632;12.428;2023-12-29T04:28:50;4.80;;;4.30;;
55222;SDS011;41090;48.632;12.428;2023-12-29T04:31:15;4.97;;;4.47;;
55222;SDS011;41090;48.632;12.428;2023-12-29T04:33:40;5.60;;;4.77;;
55222;SDS011;41090;48.632;12.428;2023-12-29T04:36:05;4.60;;;4.10;;
55222;SDS011;41090;48.632;12.428;2023-12-29T04:38:31;5.23;;;4.73;;
55222;SDS011;41090;48.632;12.428;2023-12-29T04:40:56;5.43;;;4.93;;
55222;SDS011;41090;48.632;12.428;2023-12-29T04:43:21;5.60;;;4.83;;
55222;SDS011;41090;48.632;12.428;2023-12-29T04:45:46;5.07;;;4.57;;
55222;SDS011;41090;48.632;12.428;2023-12-29T04:48:11;5.23;;;4.80;;
55222;SDS011;41090;48.632;12.428;2023-12-29T04:50:37;6.00;;;4.87;;
55222;SDS011;41090;48.632;12.428;2023-12-29T04:53:02;5.63;;;4.93;;
55222;SDS011;41090;48.632;12.428;2023-12-29T04:55:27;5.83;;;5.00;;
55222;SDS011;41090;48.632;12.428;2023-12-29T04:57:53;7.23;;;5.07;;
55222;SDS011;41090;48.632;12.428;2023-12-29T05:00:18;6.53;;;5.40;;
55222;SDS011;41090;48.632;12.428;2023-12-29T05:02:43;8.10;;;6.30;;
55222;SDS011;41090;48.632;12.428;2023-12-29T05:05:09;14.53;;;9.00;;
55222;SDS011;41090;48.632;12.428;2023-12-29T05:07:34;15.47;;;9.53;;
55222;SDS011;41090;48.632;12.428;2023-12-29T05:09:59;14.80;;;10.90;;
55222;SDS011;41090;48.632;12.428;2023-12-29T05:12:24;9.37;;;7.70;;
55222;SDS011;41090;48.632;12.428;2023-12-29T05:14:50;9.37;;;6.10;;
55222;SDS011;41090;48.632;12.428;2023-12-29T05:17:15;6.17;;;5.47;;
55222;SDS011;41090;48.632;12.428;2023-12-29T05:19:40;6.27;;;5.67;;
55222;SDS011;41090;48.632;12.428;2023-12-29T05:22:05;6.20;;;5.60;;
55222;SDS011;41090;48.632;12.428;2023-12-29T05:24:30;6.00;;;5.40;;
55222;SDS011;41090;48.632;12.428;2023-12-29T05:26:56;6.20;;;5.60;;
55222;SDS011;41090;48.632;12.428;2023-12-29T05:29:21;5.73;;;5.13;;
55222;SDS011;41090;48.632;12.428;2023-12-29T05:31:46;5.40;;;4.90;;
55222;SDS011;41090;48.632;12.428;2023-12-29T05:34:11;5.20;;;4.80;;
55222;SDS011;41090;48.632;12.428;2023-12-29T05:36:36;5.37;;;4.63;;
55222;SDS011;41090;48.632;12.428;2023-12-29T05:39:02;6.33;;;5.10;;
55222;SDS011;41090;48.632;12.428;2023-12-29T05:41:28;5.77;;;5.27;;
55222;SDS011;41090;48.632;12.428;2023-12-29T05:43:53;7.53;;;6.73;;
55222;SDS011;41090;48.632;12.428;2023-12-29T05:46:18;12.63;;;11.30;;
55222;SDS011;41090;48.632;12.428;2023-12-29T05:48:44;9.77;;;8.50;;
55222;SDS011;41090;48.632;12.428;2023-12-29T05:51:09;6.70;;;6.00;;
55222;SDS011;41090;48.632;12.428;2023-12-29T05:53:35;6.13;;;5.63;;
55222;SDS011;41090;48.632;12.428;2023-12-29T05:56:00;6.23;;;5.63;;
55222;SDS011;41090;48.632;12.428;2023-12-29T05:58:25;5.43;;;4.90;;
55222;SDS011;41090;48.632;12.428;2023-12-29T06:00:51;8.90;;;8.10;;
55222;SDS011;41090;48.632;12.428;2023-12-29T06:03:16;7.00;;;6.40;;
55222;SDS011;41090;48.632;12.428;2023-12-29T06:05:41;6.27;;;5.60;;
55222;SDS011;41090;48.632;12.428;2023-12-29T06:08:06;6.40;;;5.90;;
55222;SDS011;41090;48.632;12.428;2023-12-29T06:10:32;37.10;;;26.07;;
55222;SDS011;41090;48.632;12.428;2023-12-29T06:12:57;28.43;;;19.80;;
55222;SDS011;41090;48.632;12.428;2023-12-29T06:15:22;46.60;;;28.43;;
55222;SDS011;41090;48.632;12.428;2023-12-29T06:17:48;13.27;;;10.17;;
55222;SDS011;41090;48.632;12.428;2023-12-29T06:20:13;11.03;;;7.60;;
55222;SDS011;41090;48.632;12.428;2023-12-29T06:22:39;6.60;;;5.27;;
55222;SDS011;41090;48.632;12.428;2023-12-29T06:25:05;17.60;;;12.20;;
55222;SDS011;41090;48.632;12.428;2023-12-29T06:27:30;5.70;;;5.10;;
55222;SDS011;41090;48.632;12.428;2023-12-29T06:29:57;4.50;;;4.10;;
55222;SDS011;41090;48.632;12.428;2023-12-29T06:32:22;3.97;;;3.57;;
55222;SDS011;41090;48.632;12.428;2023-12-29T06:34:47;4.03;;;3.60;;
55222;SDS011;41090;48.632;12.428;2023-12-29T06:37:12;3.73;;;3.43;;
55222;SDS011;41090;48.632;12.428;2023-12-29T06:39:38;3.73;;;3.30;;
55222;SDS011;41090;48.632;12.428;2023-12-29T06:42:05;4.13;;;3.53;;
55222;SDS011;41090;48.632;12.428;2023-12-29T06:44:30;3.27;;;2.97;;
55222;SDS011;41090;48.632;12.428;2023-12-29T06:46:55;3.33;;;3.03;;
55222;SDS011;41090;48.632;12.428;2023-12-29T06:49:20;3.50;;;3.00;;
55222;SDS011;41090;48.632;12.428;2023-12-29T06:51:45;3.50;;;2.93;;
55222;SDS011;41090;48.632;12.428;2023-12-29T06:54:11;3.40;;;3.10;;
55222;SDS011;41090;48.632;12.428;2023-12-29T06:56:36;3.43;;;3.13;;
55222;SDS011;41090;48.632;12.428;2023-12-29T06:59:02;3.73;;;3.10;;
55222;SDS011;41090;48.632;12.428;2023-12-29T07:01:27;4.30;;;3.03;;
55222;SDS011;41090;48.632;12.428;2023-12-29T07:03:52;3.47;;;3.17;;
55222;SDS011;41090;48.632;12.428;2023-12-29T07:06:17;3.80;;;3.10;;
55222;SDS011;41090;48.632;12.428;2023-12-29T07:08:43;4.40;;;3.50;;
55222;SDS011;41090;48.632;12.428;2023-12-29T07:11:11;3.37;;;3.07;;
55222;SDS011;41090;48.632;12.428;2023-12-29T07:13:39;3.70;;;3.30;;
55222;SDS011;41090;48.632;12.428;2023-12-29T07:16:04;3.30;;;3.00;;
55222;SDS011;41090;48.632;12.428;2023-12-29T07:18:30;3.90;;;2.90;;
55222;SDS011;41090;48.632;12.428;2023-12-29T07:20:55;4.20;;;3.30;;
55222;SDS011;41090;48.632;12.428;2023-12-29T07:23:20;3.57;;;3.27;;
55222;SDS011;41090;48.632;12.428;2023-12-29T07:25:46;3.93;;;3.50;;
55222;SDS011;41090;48.632;12.428;2023-12-29T07:28:12;4.10;;;3.27;;
55222;SDS011;41090;48.632;12.428;2023-12-29T07:30:37;3.70;;;3.40;;
55222;SDS011;41090;48.632;12.428;2023-12-29T07:33:02;4.63;;;3.87;;
55222;SDS011;41090;48.632;12.428;2023-12-29T07:35:28;6.23;;;5.30;;
55222;SDS011;41090;48.632;12.428;2023-12-29T07:37:53;5.33;;;4.50;;
55222;SDS011;41090;48.632;12.428;2023-12-29T07:40:18;5.90;;;3.80;;
55222;SDS011;41090;48.632;12.428;2023-12-29T07:42:43;4.03;;;3.73;;
55222;SDS011;41090;48.632;12.428;2023-12-29T07:45:10;5.30;;;4.57;;
55222;SDS011;41090;48.632;12.428;2023-12-29T07:47:36;5.17;;;4.67;;
55222;SDS011;41090;48.632;12.428;2023-12-29T07:50:01;5.37;;;4.03;;
55222;SDS011;41090;48.632;12.428;2023-12-29T07:52:26;3.60;;;3.30;;
55222;SDS011;41090;48.632;12.428;2023-12-29T07:54:52;3.70;;;3.40;;
55222;SDS011;41090;48.632;12.428;2023-12-29T07:57:17;3.90;;;3.47;;
55222;SDS011;41090;48.632;12.428;2023-12-29T07:59:42;3.47;;;3.17;;
55222;SDS011;41090;48.632;12.428;2023-12-29T08:02:07;3.80;;;3.47;;
55222;SDS011;41090;48.632;12.428;2023-12-29T08:04:32;5.43;;;3.50;;
55222;SDS011;41090;48.632;12.428;2023-12-29T08:06:58;5.10;;;3.43;;
55222;SDS011;41090;48.632;12.428;2023-12-29T08:09:23;3.67;;;3.37;;
55222;SDS011;41090;48.632;12.428;2023-12-29T08:11:48;3.50;;;3.20;;
55222;SDS011;41090;48.632;12.428;2023-12-29T08:14:14;4.20;;;3.23;;
55222;SDS011;41090;48.632;12.428;2023-12-29T08:16:39;4.40;;;4.00;;
55222;SDS011;41090;48.632;12.428;2023-12-29T08:19:07;4.20;;;3.50;;
55222;SDS011;41090;48.632;12.428;2023-12-29T08:21:33;4.63;;;3.60;;
55222;SDS011;41090;48.632;12.428;2023-12-29T08:23:58;3.50;;;3.20;;
55222;SDS011;41090;48.632;12.428;2023-12-29T08:26:23;5.50;;;3.47;;
55222;SDS011;41090;48.632;12.428;2023-12-29T08:28:49;5.37;;;3.30;;
55222;SDS011;41090;48.632;12.428;2023-12-29T08:31:14;3.70;;;3.40;;
55222;SDS011;41090;48.632;12.428;2023-12-29T08:33:39;3.63;;;3.33;;
55222;SDS011;41090;48.632;12.428;2023-12-29T08:36:05;4.93;;;3.30;;
55222;SDS011;41090;48.632;12.428;2023-12-29T08:38:31;5.10;;;3.97;;
55222;SDS011;41090;48.632;12.428;2023-12-29T08:40:56;4.83;;;4.43;;
55222;SDS011;41090;48.632;12.428;2023-12-29T08:43:22;3.37;;;3.07;;
55222;SDS011;41090;48.632;12.428;2023-12-29T08:45:47;3.57;;;3.13;;
55222;SDS011;41090;48.632;12.428;2023-12-29T08:48:12;3.53;;;3.23;;
55222;SDS011;41090;48.632;12.428;2023-12-29T08:50:38;3.60;;;3.30;;
55222;SDS011;41090;48.632;12.428;2023-12-29T08:53:03;3.10;;;2.80;;
55222;SDS011;41090;48.632;12.428;2023-12-29T08:55:28;3.17;;;2.83;;
55222;SDS011;41090;48.632;12.428;2023-12-29T08:57:53;3.27;;;2.80;;
55222;SDS011;41090;48.632;12.428;2023-12-29T09:00:19;2.87;;;2.67;;
55222;SDS011;41090;48.632;12.428;2023-12-29T09:02:44;3.00;;;2.70;;
55222;SDS011;41090;48.632;12.428;2023-12-29T09:05:11;4.47;;;3.00;;
55222;SDS011;41090;48.632;12.428;2023-12-29T09:07:36;3.13;;;2.83;;
55222;SDS011;41090;48.632;12.428;2023-12-29T09:10:02;3.30;;;3.00;;
55222;SDS011;41090;48.632;12.428;2023-12-29T09:12:28;3.57;;;3.20;;
55222;SDS011;41090;48.632;12.428;2023-12-29T09:14:53;3.33;;;3.03;;
55222;SDS011;41090;48.632;12.428;2023-12-29T09:17:18;2.93;;;2.63;;
55222;SDS011;41090;48.632;12.428;2023-12-29T09:19:43;2.50;;;2.30;;
55222;SDS011;41090;48.632;12.428;2023-12-29T09:22:09;2.83;;;2.60;;
55222;SDS011;41090;48.632;12.428;2023-12-29T09:24:34;2.70;;;2.50;;
55222;SDS011;41090;48.632;12.428;2023-12-29T09:26:59;2.60;;;2.40;;
55222;SDS011;41090;48.632;12.428;2023-12-29T09:29:24;2.50;;;2.30;;
55222;SDS011;41090;48.632;12.428;2023-12-29T09:31:50;2.87;;;2.60;;
55222;SDS011;41090;48.632;12.428;2023-12-29T09:34:15;2.33;;;2.13;;
55222;SDS011;41090;48.632;12.428;2023-12-29T09:36:40;2.80;;;2.23;;
55222;SDS011;41090;48.632;12.428;2023-12-29T09:39:06;3.20;;;2.30;;
55222;SDS011;41090;48.632;12.428;2023-12-29T09:41:31;2.60;;;2.25;;
55222;SDS011;41090;48.632;12.428;2023-12-29T09:43:57;2.28;;;2.08;;
55222;SDS011;41090;48.632;12.428;2023-12-29T09:46:23;2.45;;;2.17;;
55222;SDS011;41090;48.632;12.428;2023-12-29T09:48:49;2.55;;;2.10;;
55222;SDS011;41090;48.632;12.428;2023-12-29T09:51:17;2.13;;;1.92;;
55222;SDS011;41090;48.632;12.428;2023-12-29T09:53:47;2.40;;;1.90;;
55222;SDS011;41090;48.632;12.428;2023-12-29T09:56:12;2.30;;;2.10;;
55222;SDS011;41090;48.632;12.428;2023-12-29T09:58:39;2.70;;;2.25;;
55222;SDS011;41090;48.632;12.428;2023-12-29T10:01:05;2.65;;;2.15;;
55222;SDS011;41090;48.632;12.428;2023-12-29T10:03:31;3.10;;;2.13;;
55222;SDS011;41090;48.632;12.428;2023-12-29T10:05:58;2.10;;;1.90;;
55222;SDS011;41090;48.632;12.428;2023-12-29T10:08:24;3.22;;;2.30;;
55222;SDS011;41090;48.632;12.428;2023-12-29T10:10:50;2.40;;;2.20;;
55222;SDS011;41090;48.632;12.428;2023-12-29T10:13:16;2.67;;;1.95;;
55222;SDS011;41090;48.632;12.428;2023-12-29T10:15:46;2.25;;;1.90;;
55222;SDS011;41090;48.632;12.428;2023-12-29T10:18:22;2.97;;;2.10;;
55222;SDS011;41090;48.632;12.428;2023-12-29T10:23:36;2.38;;;2.00;;
55222;SDS011;41090;48.632;12.428;2023-12-29T10:26:01;2.30;;;1.90;;
55222;SDS011;41090;48.632;12.428;2023-12-29T10:28:27;2.13;;;1.90;;
55222;SDS011;41090;48.632;12.428;2023-12-29T10:30:53;2.28;;;2.08;;
55222;SDS011;41090;48.632;12.428;2023-12-29T10:33:18;2.95;;;1.98;;
55222;SDS011;41090;48.632;12.428;2023-12-29T10:35:55;2.42;;;1.98;;
55222;SDS011;41090;48.632;12.428;2023-12-29T10:38:21;2.05;;;1.80;;
55222;SDS011;41090;48.632;12.428;2023-12-29T10:40:46;2.10;;;1.88;;
55222;SDS011;41090;48.632;12.428;2023-12-29T10:43:12;2.05;;;1.70;;
55222;SDS011;41090;48.632;12.428;2023-12-29T10:45:37;2.83;;;2.30;;
55222;SDS011;41090;48.632;12.428;2023-12-29T10:48:02;2.53;;;2.17;;
55222;SDS011;41090;48.632;12.428;2023-12-29T10:50:27;2.30;;;1.90;;
55222;SDS011;41090;48.632;12.428;2023-12-29T10:53:12;2.70;;;2.20;;
55222;SDS011;41090;48.632;12.428;2023-12-29T10:55:37;2.45;;;2.25;;
55222;SDS011;41090;48.632;12.428;2023-12-29T10:58:02;2.90;;;1.80;;
55222;SDS011;41090;48.632;12.428;2023-12-29T11:00:30;2.10;;;1.90;;
55222;SDS011;41090;48.632;12.428;2023-12-29T11:02:57;2.00;;;1.90;;
55222;SDS011;41090;48.632;12.428;2023-12-29T11:05:24;2.20;;;2.00;;
55222;SDS011;41090;48.632;12.428;2023-12-29T11:07:50;2.20;;;2.00;;
55222;SDS011;41090;48.632;12.428;2023-12-29T11:10:18;3.00;;;2.33;;
55222;SDS011;41090;48.632;12.428;2023-12-29T11:12:44;2.53;;;2.10;;
55222;SDS011;41090;48.632;12.428;2023-12-29T11:15:10;2.37;;;2.17;;
55222;SDS011;41090;48.632;12.428;2023-12-29T11:17:38;2.30;;;2.10;;
55222;SDS011;41090;48.632;12.428;2023-12-29T11:20:04;2.77;;;2.00;;
55222;SDS011;41090;48.632;12.428;2023-12-29T11:22:30;2.30;;;2.10;;
55222;SDS011;41090;48.632;12.428;2023-12-29T11:24:56;3.50;;;2.30;;
55222;SDS011;41090;48.632;12.428;2023-12-29T11:27:25;2.40;;;2.20;;
55222;SDS011;41090;48.632;12.428;2023-12-29T11:29:50;3.17;;;2.13;;
55222;SDS011;41090;48.632;12.428;2023-12-29T11:32:18;2.90;;;2.23;;
55222;SDS011;41090;48.632;12.428;2023-12-29T11:34:52;2.37;;;2.17;;
55222;SDS011;41090;48.632;12.428;2023-12-29T11:37:33;2.57;;;2.10;;
55222;SDS011;41090;48.632;12.428;2023-12-29T11:42:38;2.60;;;2.40;;
55222;SDS011;41090;48.632;12.428;2023-12-29T11:47:49;2.50;;;2.30;;
55222;SDS011;41090;48.632;12.428;2023-12-29T11:50:18;2.67;;;2.47;;
55222;SDS011;41090;48.632;12.428;2023-12-29T11:52:52;2.50;;;2.30;;
55222;SDS011;41090;48.632;12.428;2023-12-29T11:55:18;3.37;;;2.50;;
55222;SDS011;41090;48.632;12.428;2023-12-29T11:57:45;3.20;;;2.70;;
55222;SDS011;41090;48.632;12.428;2023-12-29T12:00:13;5.53;;;3.50;;
55222;SDS011;41090;48.632;12.428;2023-12-29T12:02:38;3.83;;;3.50;;
55222;SDS011;41090;48.632;12.428;2023-12-29T12:05:04;3.57;;;3.23;;
55222;SDS011;41090;48.632;12.428;2023-12-29T12:12:41;2.60;;;2.40;;
55222;SDS011;41090;48.632;12.428;2023-12-29T12:17:50;2.37;;;2.10;;
55222;SDS011;41090;48.632;12.428;2023-12-29T12:20:16;2.30;;;2.10;;
55222;SDS011;41090;48.632;12.428;2023-12-29T12:22:42;3.10;;;2.07;;
55222;SDS011;41090;48.632;12.428;2023-12-29T12:25:08;2.43;;;2.10;;
55222;SDS011;41090;48.632;12.428;2023-12-29T12:27:37;2.60;;;2.40;;
55222;SDS011;41090;48.632;12.428;2023-12-29T12:30:02;3.50;;;3.20;;
55222;SDS011;41090;48.632;12.428;2023-12-29T12:32:28;2.30;;;2.10;;
55222;SDS011;41090;48.632;12.428;2023-12-29T12:34:54;2.87;;;2.60;;
55222;SDS011;41090;48.632;12.428;2023-12-29T12:37:23;3.60;;;3.30;;
55222;SDS011;41090;48.632;12.428;2023-12-29T12:39:48;2.83;;;2.37;;
55222;SDS011;41090;48.632;12.428;2023-12-29T12:42:14;2.40;;;2.20;;
55222;SDS011;41090;48.632;12.428;2023-12-29T12:44:40;2.33;;;2.13;;
55222;SDS011;41090;48.632;12.428;2023-12-29T12:47:07;2.63;;;2.43;;
55222;SDS011;41090;48.632;12.428;2023-12-29T12:49:34;2.87;;;2.67;;
55222;SDS011;41090;48.632;12.428;2023-12-29T12:51:59;2.37;;;2.17;;
55222;SDS011;41090;48.632;12.428;2023-12-29T12:54:24;4.07;;;3.50;;
55222;SDS011;41090;48.632;12.428;2023-12-29T12:56:49;2.90;;;2.70;;
55222;SDS011;41090;48.632;12.428;2023-12-29T12:59:15;2.77;;;2.50;;
55222;SDS011;41090;48.632;12.428;2023-12-29T13:01:41;3.23;;;2.03;;
55222;SDS011;41090;48.632;12.428;2023-12-29T13:04:07;2.40;;;2.00;;
55222;SDS011;41090;48.632;12.428;2023-12-29T13:06:33;2.67;;;2.40;;
55222;SDS011;41090;48.632;12.428;2023-12-29T13:08:59;2.50;;;2.30;;
55222;SDS011;41090;48.632;12.428;2023-12-29T13:11:25;2.47;;;2.20;;
55222;SDS011;41090;48.632;12.428;2023-12-29T13:13:51;2.90;;;2.60;;
55222;SDS011;41090;48.632;12.428;2023-12-29T13:16:55;2.40;;;2.20;;
55222;SDS011;41090;48.632;12.428;2023-12-29T13:21:42;2.47;;;2.27;;
55222;SDS011;41090;48.632;12.428;2023-12-29T13:24:07;2.50;;;2.30;;
55222;SDS011;41090;48.632;12.428;2023-12-29T13:26:33;2.20;;;2.00;;
55222;SDS011;41090;48.632;12.428;2023-12-29T13:28:58;2.30;;;2.10;;
55222;SDS011;41090;48.632;12.428;2023-12-29T13:31:24;3.37;;;1.97;;
55222;SDS011;41090;48.632;12.428;2023-12-29T13:38:41;4.47;;;2.23;;
55222;SDS011;41090;48.632;12.428;2023-12-29T13:41:11;2.30;;;2.10;;
55222;SDS011;41090;48.632;12.428;2023-12-29T13:43:38;2.77;;;2.47;;
55222;SDS011;41090;48.632;12.428;2023-12-29T13:46:07;3.00;;;2.20;;
55222;SDS011;41090;48.632;12.428;2023-12-29T13:48:32;2.30;;;2.10;;
55222;SDS011;41090;48.632;12.428;2023-12-29T13:50:58;3.13;;;2.30;;
55222;SDS011;41090;48.632;12.428;2023-12-29T13:53:23;5.37;;;4.50;;
55222;SDS011;41090;48.632;12.428;2023-12-29T13:55:48;3.10;;;2.80;;
55222;SDS011;41090;48.632;12.428;2023-12-29T13:58:16;3.30;;;3.00;;
55222;SDS011;41090;48.632;12.428;2023-12-29T14:00:42;3.10;;;2.80;;
55222;SDS011;41090;48.632;12.428;2023-12-29T14:03:15;3.27;;;2.57;;
55222;SDS011;41090;48.632;12.428;2023-12-29T14:05:48;4.07;;;3.73;;
55222;SDS011;41090;48.632;12.428;2023-12-29T14:08:32;2.53;;;2.17;;
55222;SDS011;41090;48.632;12.428;2023-12-29T14:10:59;6.43;;;5.80;;
55222;SDS011;41090;48.632;12.428;2023-12-29T14:13:24;37.37;;;23.73;;
55222;SDS011;41090;48.632;12.428;2023-12-29T14:15:49;7.33;;;5.47;;
55222;SDS011;41090;48.632;12.428;2023-12-29T14:18:26;4.43;;;3.50;;
55222;SDS011;41090;48.632;12.428;2023-12-29T14:20:54;3.70;;;3.37;;
55222;SDS011;41090;48.632;12.428;2023-12-29T14:23:19;9.43;;;8.43;;
55222;SDS011;41090;48.632;12.428;2023-12-29T14:25:45;8.00;;;7.23;;
55222;SDS011;41090;48.632;12.428;2023-12-29T14:28:18;3.80;;;3.50;;
55222;SDS011;41090;48.632;12.428;2023-12-29T14:30:44;3.80;;;2.90;;
55222;SDS011;41090;48.632;12.428;2023-12-29T14:33:09;3.20;;;2.90;;
55222;SDS011;41090;48.632;12.428;2023-12-29T14:35:34;4.13;;;3.73;;
55222;SDS011;41090;48.632;12.428;2023-12-29T14:38:00;4.03;;;2.90;;
55222;SDS011;41090;48.632;12.428;2023-12-29T14:40:25;2.80;;;2.60;;
55222;SDS011;41090;48.632;12.428;2023-12-29T14:42:51;2.83;;;2.50;;
55222;SDS011;41090;48.632;12.428;2023-12-29T14:45:16;3.33;;;2.10;;
55222;SDS011;41090;48.632;12.428;2023-12-29T14:47:41;2.77;;;2.23;;